sensor_id;sensor_type;location;lat;lon;timestamp;pressure;altitude;pressure_sealevel;temperature;humidity
53889;BME280;41337;51.400;-2.342;2022-07-26T00:04:10;101363.69;;;14.75;100.00
53889;BME280;41337;51.400;-2.342;2022-07-26T00:09:17;101378.53;;;14.71;100.00
53889;BME280;41337;51.400;-2.342;2022-07-26T00:14:18;101383.78;;;14.73;100.00
53889;BME280;41337;51.400;-2.342;2022-07-26T00:19:19;101389.88;;;14.78;100.00
53889;BME280;41337;51.400;-2.342;2022-07-26T00:24:20;101385.31;;;15.06;100.00
53889;BME280;41337;51.400;-2.342;2022-07-26T00:29:21;101388.91;;;14.94;100.00
53889;BME280;41337;51.400;-2.342;2022-07-26T00:34:22;101388.91;;;14.96;100.00
53889;BME280;41337;51.400;-2.342;2022-07-26T00:39:23;101396.84;;;14.80;100.00
53889;BME280;41337;51.400;-2.342;2022-07-26T00:44:24;101394.25;;;14.74;100.00
53889;BME280;41337;51.400;-2.342;2022-07-26T00:49:24;101389.09;;;14.63;100.00
53889;BME280;41337;51.400;-2.342;2022-07-26T00:54:25;101382.97;;;14.61;100.00
53889;BME280;41337;51.400;-2.342;2022-07-26T00:59:26;101395.19;;;14.65;100.00
53889;BME280;41337;51.400;-2.342;2022-07-26T01:04:27;101389.91;;;14.72;100.00
53889;BME280;41337;51.400;-2.342;2022-07-26T01:09:28;101396.00;;;14.77;100.00
53889;BME280;41337;51.400;-2.342;2022-07-26T01:14:29;101401.22;;;14.86;100.00
53889;BME280;41337;51.400;-2.342;2022-07-26T01:19:30;101409.91;;;14.93;100.00
53889;BME280;41337;51.400;-2.342;2022-07-26T01:24:31;101403.72;;;15.01;100.00
53889;BME280;41337;51.400;-2.342;2022-07-26T01:29:36;101411.56;;;15.09;100.00
53889;BME280;41337;51.400;-2.342;2022-07-26T01:34:37;101412.38;;;15.17;100.00
53889;BME280;41337;51.400;-2.342;2022-07-26T01:39:38;101417.59;;;15.20;100.00
53889;BME280;41337;51.400;-2.342;2022-07-26T01:44:39;101415.84;;;15.21;100.00
53889;BME280;41337;51.400;-2.342;2022-07-26T01:49:40;101411.50;;;15.15;100.00
53889;BME280;41337;51.400;-2.342;2022-07-26T01:54:41;101407.94;;;15.22;100.00
53889;BME280;41337;51.400;-2.342;2022-07-26T01:59:42;101404.47;;;15.20;100.00
53889;BME280;41337;51.400;-2.342;2022-07-26T02:04:42;101404.47;;;15.22;100.00
53889;BME280;41337;51.400;-2.342;2022-07-26T02:10:03;101392.19;;;15.24;100.00
53889;BME280;41337;51.400;-2.342;2022-07-26T02:15:05;101393.94;;;15.23;100.00
53889;BME280;41337;51.400;-2.342;2022-07-26T02:20:13;101413.19;;;15.26;100.00
53889;BME280;41337;51.400;-2.342;2022-07-26T02:25:16;101408.81;;;15.20;100.00
53889;BME280;41337;51.400;-2.342;2022-07-26T02:30:21;101420.13;;;15.30;100.00
53889;BME280;41337;51.400;-2.342;2022-07-26T02:35:22;101424.59;;;15.18;100.00
53889;BME280;41337;51.400;-2.342;2022-07-26T02:40:23;101419.31;;;15.21;100.00
53889;BME280;41337;51.400;-2.342;2022-07-26T02:45:24;101421.13;;;15.15;100.00
53889;BME280;41337;51.400;-2.342;2022-07-26T02:50:26;101418.41;;;15.27;100.00
53889;BME280;41337;51.400;-2.342;2022-07-26T02:55:28;101437.72;;;15.18;100.00
53889;BME280;41337;51.400;-2.342;2022-07-26T03:00:29;101423.69;;;15.26;100.00
53889;BME280;41337;51.400;-2.342;2022-07-26T03:05:30;101422.06;;;15.09;100.00
53889;BME280;41337;51.400;-2.342;2022-07-26T03:10:31;101424.72;;;15.01;100.00
53889;BME280;41337;51.400;-2.342;2022-07-26T03:15:32;101423.88;;;14.93;100.00
53889;BME280;41337;51.400;-2.342;2022-07-26T03:20:32;101415.22;;;14.80;100.00
53889;BME280;41337;51.400;-2.342;2022-07-26T03:25:42;101418.78;;;14.65;100.00
53889;BME280;41337;51.400;-2.342;2022-07-26T03:31:09;101432.81;;;14.50;100.00
53889;BME280;41337;51.400;-2.342;2022-07-26T03:36:09;101432.81;;;14.50;100.00
53889;BME280;41337;51.400;-2.342;2022-07-26T03:41:10;101438.09;;;14.41;100.00
53889;BME280;41337;51.400;-2.342;2022-07-26T03:46:11;101442.47;;;14.36;100.00
53889;BME280;41337;51.400;-2.342;2022-07-26T03:51:12;101450.31;;;14.42;100.00
53889;BME280;41337;51.400;-2.342;2022-07-26T03:56:13;101441.56;;;14.48;100.00
53889;BME280;41337;51.400;-2.342;2022-07-26T04:01:41;101452.88;;;14.55;100.00
53889;BME280;41337;51.400;-2.342;2022-07-26T04:06:42;101458.16;;;14.61;100.00
53889;BME280;41337;51.400;-2.342;2022-07-26T04:11:43;101467.75;;;14.66;100.00
53889;BME280;41337;51.400;-2.342;2022-07-26T04:16:59;101460.75;;;14.70;100.00
53889;BME280;41337;51.400;-2.342;2022-07-26T04:22:00;101468.59;;;14.76;100.00
53889;BME280;41337;51.400;-2.342;2022-07-26T04:27:00;101480.78;;;14.80;100.00
53889;BME280;41337;51.400;-2.342;2022-07-26T04:32:01;101474.66;;;14.84;100.00
53889;BME280;41337;51.400;-2.342;2022-07-26T04:37:02;101480.75;;;14.91;100.00
53889;BME280;41337;51.400;-2.342;2022-07-26T04:42:03;101480.78;;;14.86;100.00
53889;BME280;41337;51.400;-2.342;2022-07-26T04:47:04;101482.53;;;14.86;100.00
53889;BME280;41337;51.400;-2.342;2022-07-26T04:52:05;101488.63;;;14.90;100.00
53889;BME280;41337;51.400;-2.342;2022-07-26T04:57:06;101490.34;;;14.91;100.00
53889;BME280;41337;51.400;-2.342;2022-07-26T05:02:07;101497.34;;;14.95;100.00
53889;BME280;41337;51.400;-2.342;2022-07-26T05:07:12;101499.06;;;15.02;100.00
53889;BME280;41337;51.400;-2.342;2022-07-26T05:12:12;101496.38;;;15.11;100.00
53889;BME280;41337;51.400;-2.342;2022-07-26T05:17:13;101495.47;;;15.18;100.00
53889;BME280;41337;51.400;-2.342;2022-07-26T05:22:14;101499.81;;;15.27;100.00
53889;BME280;41337;51.400;-2.342;2022-07-26T05:27:15;101507.59;;;15.36;100.00
53889;BME280;41337;51.400;-2.342;2022-07-26T05:32:16;101505.88;;;15.34;100.00
53889;BME280;41337;51.400;-2.342;2022-07-26T05:37:17;101513.72;;;15.41;100.00
53889;BME280;41337;51.400;-2.342;2022-07-26T05:42:18;101511.03;;;15.46;100.00
53889;BME280;41337;51.400;-2.342;2022-07-26T05:47:18;101513.59;;;15.55;100.00
53889;BME280;41337;51.400;-2.342;2022-07-26T05:52:20;101521.47;;;15.58;100.00
53889;BME280;41337;51.400;-2.342;2022-07-26T05:57:21;101525.88;;;15.55;100.00
53889;BME280;41337;51.400;-2.342;2022-07-26T06:02:25;101535.47;;;15.57;100.00
53889;BME280;41337;51.400;-2.342;2022-07-26T06:07:30;101529.31;;;15.65;100.00
53889;BME280;41337;51.400;-2.342;2022-07-26T06:12:31;101531.81;;;15.85;100.00
53889;BME280;41337;51.400;-2.342;2022-07-26T06:17:32;101540.44;;;16.01;100.00
53889;BME280;41337;51.400;-2.342;2022-07-26T06:22:33;101537.78;;;16.05;100.00
53889;BME280;41337;51.400;-2.342;2022-07-26T06:27:33;101547.34;;;16.12;100.00
53889;BME280;41337;51.400;-2.342;2022-07-26T06:32:34;101567.38;;;16.26;100.00
53889;BME280;41337;51.400;-2.342;2022-07-26T06:37:42;101572.50;;;16.40;100.00
53889;BME280;41337;51.400;-2.342;2022-07-26T06:42:43;101576.81;;;16.47;100.00
53889;BME280;41337;51.400;-2.342;2022-07-26T06:47:44;101580.22;;;16.58;100.00
53889;BME280;41337;51.400;-2.342;2022-07-26T06:52:45;101589.66;;;16.76;100.00
53889;BME280;41337;51.400;-2.342;2022-07-26T06:57:46;101602.75;;;16.84;100.00
53889;BME280;41337;51.400;-2.342;2022-07-26T07:02:47;101604.44;;;16.91;100.00
53889;BME280;41337;51.400;-2.342;2022-07-26T07:07:56;101601.78;;;16.94;100.00
53889;BME280;41337;51.400;-2.342;2022-07-26T07:12:57;101606.19;;;16.92;100.00
53889;BME280;41337;51.400;-2.342;2022-07-26T07:17:58;101608.72;;;17.00;100.00
53889;BME280;41337;51.400;-2.342;2022-07-26T07:22:58;101615.72;;;17.04;100.00
53889;BME280;41337;51.400;-2.342;2022-07-26T07:27:59;101621.75;;;17.11;100.00
53889;BME280;41337;51.400;-2.342;2022-07-26T07:33:00;101615.53;;;17.16;100.00
53889;BME280;41337;51.400;-2.342;2022-07-26T07:38:01;101616.03;;;17.48;100.00
53889;BME280;41337;51.400;-2.342;2022-07-26T07:43:02;101611.31;;;17.71;100.00
53889;BME280;41337;51.400;-2.342;2022-07-26T07:48:03;101617.22;;;17.89;100.00
53889;BME280;41337;51.400;-2.342;2022-07-26T07:53:04;101610.81;;;18.05;100.00
53889;BME280;41337;51.400;-2.342;2022-07-26T07:58:05;101627.72;;;17.92;100.00
53889;BME280;41337;51.400;-2.342;2022-07-26T08:03:06;101618.69;;;18.08;100.00
53889;BME280;41337;51.400;-2.342;2022-07-26T08:08:11;101627.13;;;18.29;100.00
53889;BME280;41337;51.400;-2.342;2022-07-26T08:13:11;101619.06;;;18.38;100.00
53889;BME280;41337;51.400;-2.342;2022-07-26T08:18:12;101623.56;;;18.33;100.00
53889;BME280;41337;51.400;-2.342;2022-07-26T08:23:13;101632.44;;;18.26;100.00
53889;BME280;41337;51.400;-2.342;2022-07-26T08:28:14;101628.72;;;18.39;100.00
53889;BME280;41337;51.400;-2.342;2022-07-26T08:33:16;101642.63;;;18.49;100.00
53889;BME280;41337;51.400;-2.342;2022-07-26T08:38:16;101641.53;;;18.61;100.00
53889;BME280;41337;51.400;-2.342;2022-07-26T08:43:18;101636.31;;;18.58;100.00
53889;BME280;41337;51.400;-2.342;2022-07-26T08:48:19;101638.59;;;18.76;100.00
53889;BME280;41337;51.400;-2.342;2022-07-26T08:53:20;101639.78;;;18.60;100.00
53889;BME280;41337;51.400;-2.342;2022-07-26T08:58:27;101646.63;;;18.70;100.00
53889;BME280;41337;51.400;-2.342;2022-07-26T09:03:28;101641.94;;;18.87;99.08
53889;BME280;41337;51.400;-2.342;2022-07-26T09:08:31;101651.72;;;18.81;98.10
53889;BME280;41337;51.400;-2.342;2022-07-26T09:13:59;101662.47;;;19.18;99.80
53889;BME280;41337;51.400;-2.342;2022-07-26T09:19:19;101654.75;;;19.51;93.82
53889;BME280;41337;51.400;-2.342;2022-07-26T09:24:45;101657.47;;;19.89;87.88
53889;BME280;41337;51.400;-2.342;2022-07-26T09:29:53;101643.06;;;19.61;90.12
53889;BME280;41337;51.400;-2.342;2022-07-26T09:35:07;101663.78;;;19.41;92.72
53889;BME280;41337;51.400;-2.342;2022-07-26T09:40:12;101668.00;;;19.50;94.06
53889;BME280;41337;51.400;-2.342;2022-07-26T09:45:15;101657.25;;;19.57;89.98
53889;BME280;41337;51.400;-2.342;2022-07-26T09:50:30;101668.88;;;19.50;93.02
53889;BME280;41337;51.400;-2.342;2022-07-26T09:55:33;101669.31;;;19.29;93.51
53889;BME280;41337;51.400;-2.342;2022-07-26T10:00:42;101651.53;;;19.37;91.82
53889;BME280;41337;51.400;-2.342;2022-07-26T10:05:43;101657.97;;;19.66;89.75
53889;BME280;41337;51.400;-2.342;2022-07-26T10:10:45;101674.31;;;19.85;88.50
53889;BME280;41337;51.400;-2.342;2022-07-26T10:15:52;101669.22;;;20.14;85.15
53889;BME280;41337;51.400;-2.342;2022-07-26T10:20:56;101678.25;;;20.42;82.11
53889;BME280;41337;51.400;-2.342;2022-07-26T10:26:03;101678.00;;;20.51;81.73
53889;BME280;41337;51.400;-2.342;2022-07-26T10:31:25;101678.75;;;20.56;79.82
53889;BME280;41337;51.400;-2.342;2022-07-26T10:37:03;101682.13;;;20.63;79.71
53889;BME280;41337;51.400;-2.342;2022-07-26T10:42:08;101672.38;;;20.66;78.48
53889;BME280;41337;51.400;-2.342;2022-07-26T10:47:14;101679.09;;;21.11;76.80
53889;BME280;41337;51.400;-2.342;2022-07-26T10:52:29;101685.81;;;21.23;73.42
53889;BME280;41337;51.400;-2.342;2022-07-26T10:57:47;101682.09;;;21.30;71.65
53889;BME280;41337;51.400;-2.342;2022-07-26T11:02:56;101684.97;;;21.54;70.10
53889;BME280;41337;51.400;-2.342;2022-07-26T11:08:07;101672.53;;;21.56;69.08
53889;BME280;41337;51.400;-2.342;2022-07-26T11:13:17;101666.66;;;21.44;68.10
53889;BME280;41337;51.400;-2.342;2022-07-26T11:18:25;101660.38;;;21.49;68.53
53889;BME280;41337;51.400;-2.342;2022-07-26T11:23:34;101666.78;;;21.71;70.95
53889;BME280;41337;51.400;-2.342;2022-07-26T11:28:58;101671.13;;;22.02;65.06
53889;BME280;41337;51.400;-2.342;2022-07-26T11:34:03;101660.25;;;22.10;64.03
53889;BME280;41337;51.400;-2.342;2022-07-26T11:39:51;101667.38;;;22.36;60.18
53889;BME280;41337;51.400;-2.342;2022-07-26T11:44:34;101654.72;;;22.44;60.49
53889;BME280;41337;51.400;-2.342;2022-07-26T11:49:38;101666.56;;;22.34;60.97
53889;BME280;41337;51.400;-2.342;2022-07-26T11:54:50;101664.53;;;22.42;62.71
53889;BME280;41337;51.400;-2.342;2022-07-26T11:59:51;101660.88;;;22.71;57.40
53889;BME280;41337;51.400;-2.342;2022-07-26T12:05:16;101657.78;;;22.84;56.83
53889;BME280;41337;51.400;-2.342;2022-07-26T12:10:17;101663.56;;;22.70;55.99
53889;BME280;41337;51.400;-2.342;2022-07-26T12:15:18;101661.25;;;22.86;54.69
53889;BME280;41337;51.400;-2.342;2022-07-26T12:20:19;101663.22;;;23.04;55.47
53889;BME280;41337;51.400;-2.342;2022-07-26T12:25:25;101666.69;;;23.06;53.60
53889;BME280;41337;51.400;-2.342;2022-07-26T12:30:34;101667.47;;;22.60;56.23
53889;BME280;41337;51.400;-2.342;2022-07-26T12:35:38;101661.16;;;22.37;57.64
53889;BME280;41337;51.400;-2.342;2022-07-26T12:40:40;101665.06;;;22.25;57.44
53889;BME280;41337;51.400;-2.342;2022-07-26T12:45:41;101660.66;;;22.24;58.10
53889;BME280;41337;51.400;-2.342;2022-07-26T12:50:42;101668.16;;;22.11;57.83
53889;BME280;41337;51.400;-2.342;2022-07-26T12:55:43;101670.56;;;22.19;56.95
53889;BME280;41337;51.400;-2.342;2022-07-26T13:00:44;101667.34;;;22.09;58.27
53889;BME280;41337;51.400;-2.342;2022-07-26T13:05:45;101657.38;;;22.16;58.77
53889;BME280;41337;51.400;-2.342;2022-07-26T13:10:46;101659.91;;;22.21;58.38
53889;BME280;41337;51.400;-2.342;2022-07-26T13:15:47;101659.50;;;22.33;57.42
53889;BME280;41337;51.400;-2.342;2022-07-26T13:20:51;101655.22;;;22.55;55.56
53889;BME280;41337;51.400;-2.342;2022-07-26T13:25:52;101655.41;;;22.76;53.84
53889;BME280;41337;51.400;-2.342;2022-07-26T13:30:53;101642.25;;;22.97;52.39
53889;BME280;41337;51.400;-2.342;2022-07-26T13:35:54;101647.75;;;23.41;52.59
53889;BME280;41337;51.400;-2.342;2022-07-26T13:40:55;101642.16;;;23.71;47.62
53889;BME280;41337;51.400;-2.342;2022-07-26T13:46:02;101643.06;;;23.93;47.08
53889;BME280;41337;51.400;-2.342;2022-07-26T13:51:03;101645.94;;;24.09;47.22
53889;BME280;41337;51.400;-2.342;2022-07-26T13:56:04;101645.31;;;24.03;47.61
53889;BME280;41337;51.400;-2.342;2022-07-26T14:01:05;101656.16;;;24.20;46.28
53889;BME280;41337;51.400;-2.342;2022-07-26T14:06:06;101647.84;;;24.28;46.71
53889;BME280;41337;51.400;-2.342;2022-07-26T14:11:07;101641.53;;;24.51;46.27
53889;BME280;41337;51.400;-2.342;2022-07-26T14:16:13;101649.53;;;24.51;44.84
53889;BME280;41337;51.400;-2.342;2022-07-26T14:21:14;101647.38;;;24.38;45.75
53889;BME280;41337;51.400;-2.342;2022-07-26T14:26:16;101639.56;;;24.77;43.39
53889;BME280;41337;51.400;-2.342;2022-07-26T14:31:17;101635.75;;;24.82;43.89
53889;BME280;41337;51.400;-2.342;2022-07-26T14:36:21;101636.94;;;24.96;44.69
53889;BME280;41337;51.400;-2.342;2022-07-26T14:41:22;101641.28;;;25.17;42.68
53889;BME280;41337;51.400;-2.342;2022-07-26T14:46:23;101638.59;;;25.17;43.63
53889;BME280;41337;51.400;-2.342;2022-07-26T14:51:24;101642.41;;;25.70;40.70
53889;BME280;41337;51.400;-2.342;2022-07-26T14:56:25;101629.28;;;25.65;42.00
53889;BME280;41337;51.400;-2.342;2022-07-26T15:01:26;101633.56;;;26.41;38.94
53889;BME280;41337;51.400;-2.342;2022-07-26T15:06:27;101632.91;;;26.88;38.06
53889;BME280;41337;51.400;-2.342;2022-07-26T15:11:31;101638.25;;;27.22;37.04
53889;BME280;41337;51.400;-2.342;2022-07-26T15:16:32;101627.09;;;27.14;37.39
53889;BME280;41337;51.400;-2.342;2022-07-26T15:21:33;101629.97;;;26.42;38.37
53889;BME280;41337;51.400;-2.342;2022-07-26T15:26:34;101631.53;;;26.11;38.16
53889;BME280;41337;51.400;-2.342;2022-07-26T15:31:35;101623.66;;;25.34;39.82
53889;BME280;41337;51.400;-2.342;2022-07-26T15:36:36;101613.09;;;25.12;41.14
53889;BME280;41337;51.400;-2.342;2022-07-26T15:41:44;101617.59;;;25.11;40.38
53889;BME280;41337;51.400;-2.342;2022-07-26T15:46:45;101614.00;;;25.31;41.49
53889;BME280;41337;51.400;-2.342;2022-07-26T15:51:47;101602.16;;;25.92;39.02
53889;BME280;41337;51.400;-2.342;2022-07-26T15:56:52;101597.75;;;26.45;37.50
53889;BME280;41337;51.400;-2.342;2022-07-26T16:01:53;101599.88;;;26.89;36.83
53889;BME280;41337;51.400;-2.342;2022-07-26T16:06:53;101598.69;;;26.95;37.08
53889;BME280;41337;51.400;-2.342;2022-07-26T16:11:54;101604.22;;;27.08;36.17
53889;BME280;41337;51.400;-2.342;2022-07-26T16:16:55;101600.38;;;27.29;35.37
53889;BME280;41337;51.400;-2.342;2022-07-26T16:21:57;101594.97;;;27.63;35.02
53889;BME280;41337;51.400;-2.342;2022-07-26T16:27:01;101592.75;;;27.86;34.87
53889;BME280;41337;51.400;-2.342;2022-07-26T16:32:02;101589.28;;;27.83;34.11
53889;BME280;41337;51.400;-2.342;2022-07-26T16:37:03;101582.16;;;28.14;33.27
53889;BME280;41337;51.400;-2.342;2022-07-26T16:42:04;101585.28;;;28.37;33.57
53889;BME280;41337;51.400;-2.342;2022-07-26T16:47:06;101586.28;;;28.65;33.23
53889;BME280;41337;51.400;-2.342;2022-07-26T16:52:11;101581.25;;;28.44;33.93
53889;BME280;41337;51.400;-2.342;2022-07-26T16:57:12;101586.78;;;28.71;32.12
53889;BME280;41337;51.400;-2.342;2022-07-26T17:02:13;101578.66;;;28.28;32.67
53889;BME280;41337;51.400;-2.342;2022-07-26T17:07:13;101574.53;;;28.23;32.07
53889;BME280;41337;51.400;-2.342;2022-07-26T17:12:14;101574.06;;;28.00;33.18
53889;BME280;41337;51.400;-2.342;2022-07-26T17:17:15;101580.59;;;27.64;33.29
53889;BME280;41337;51.400;-2.342;2022-07-26T17:22:22;101584.81;;;26.71;34.75
53889;BME280;41337;51.400;-2.342;2022-07-26T17:27:23;101581.84;;;25.90;36.44
53889;BME280;41337;51.400;-2.342;2022-07-26T17:32:23;101580.59;;;25.97;37.25
53889;BME280;41337;51.400;-2.342;2022-07-26T17:37:24;101580.47;;;26.00;37.68
53889;BME280;41337;51.400;-2.342;2022-07-26T17:42:25;101567.28;;;26.14;38.46
53889;BME280;41337;51.400;-2.342;2022-07-26T17:47:32;101570.97;;;26.80;37.01
53889;BME280;41337;51.400;-2.342;2022-07-26T17:52:33;101574.44;;;26.98;36.21
53889;BME280;41337;51.400;-2.342;2022-07-26T17:57:33;101572.09;;;26.76;37.67
53889;BME280;41337;51.400;-2.342;2022-07-26T18:02:35;101567.00;;;26.71;36.71
53889;BME280;41337;51.400;-2.342;2022-07-26T18:07:41;101571.44;;;26.71;36.48
53889;BME280;41337;51.400;-2.342;2022-07-26T18:12:42;101573.03;;;26.75;37.22
53889;BME280;41337;51.400;-2.342;2022-07-26T18:17:43;101572.63;;;26.99;35.83
53889;BME280;41337;51.400;-2.342;2022-07-26T18:22:44;101573.09;;;26.56;35.75
53889;BME280;41337;51.400;-2.342;2022-07-26T18:27:48;101570.69;;;25.81;37.74
53889;BME280;41337;51.400;-2.342;2022-07-26T18:32:49;101571.09;;;25.17;38.73
53889;BME280;41337;51.400;-2.342;2022-07-26T18:37:51;101573.53;;;25.02;39.83
53889;BME280;41337;51.400;-2.342;2022-07-26T18:42:52;101569.56;;;24.52;40.48
53889;BME280;41337;51.400;-2.342;2022-07-26T18:47:53;101567.09;;;24.07;42.02
53889;BME280;41337;51.400;-2.342;2022-07-26T18:52:54;101566.22;;;23.62;42.63
53889;BME280;41337;51.400;-2.342;2022-07-26T18:58:01;101568.63;;;23.68;43.13
53889;BME280;41337;51.400;-2.342;2022-07-26T19:03:02;101579.19;;;23.25;43.99
53889;BME280;41337;51.400;-2.342;2022-07-26T19:08:03;101580.47;;;23.15;45.51
53889;BME280;41337;51.400;-2.342;2022-07-26T19:13:13;101586.91;;;22.84;46.06
53889;BME280;41337;51.400;-2.342;2022-07-26T19:18:20;101580.41;;;22.43;48.35
53889;BME280;41337;51.400;-2.342;2022-07-26T19:23:20;101588.13;;;22.24;50.12
53889;BME280;41337;51.400;-2.342;2022-07-26T19:28:21;101591.16;;;21.86;52.51
53889;BME280;41337;51.400;-2.342;2022-07-26T19:33:26;101588.78;;;21.77;53.69
53889;BME280;41337;51.400;-2.342;2022-07-26T19:38:28;101595.59;;;21.57;55.69
53889;BME280;41337;51.400;-2.342;2022-07-26T19:43:29;101598.91;;;21.34;57.04
53889;BME280;41337;51.400;-2.342;2022-07-26T19:48:30;101595.72;;;21.23;59.59
53889;BME280;41337;51.400;-2.342;2022-07-26T19:53:31;101595.22;;;20.79;64.05
53889;BME280;41337;51.400;-2.342;2022-07-26T19:58:31;101603.56;;;20.65;66.23
53889;BME280;41337;51.400;-2.342;2022-07-26T20:03:32;101609.34;;;20.45;68.09
53889;BME280;41337;51.400;-2.342;2022-07-26T20:08:39;101613.19;;;20.33;70.14
53889;BME280;41337;51.400;-2.342;2022-07-26T20:13:41;101618.41;;;20.36;70.17
53889;BME280;41337;51.400;-2.342;2022-07-26T20:18:41;101624.63;;;19.97;73.27
53889;BME280;41337;51.400;-2.342;2022-07-26T20:23:42;101628.50;;;19.83;73.84
53889;BME280;41337;51.400;-2.342;2022-07-26T20:28:52;101639.66;;;19.56;81.47
53889;BME280;41337;51.400;-2.342;2022-07-26T20:33:58;101645.19;;;19.46;82.16
53889;BME280;41337;51.400;-2.342;2022-07-26T20:39:00;101647.94;;;19.41;81.38
53889;BME280;41337;51.400;-2.342;2022-07-26T20:44:01;101660.56;;;19.26;82.54
53889;BME280;41337;51.400;-2.342;2022-07-26T20:49:02;101658.94;;;19.19;84.94
53889;BME280;41337;51.400;-2.342;2022-07-26T20:54:04;101662.06;;;18.95;89.14
53889;BME280;41337;51.400;-2.342;2022-07-26T20:59:05;101662.53;;;18.67;91.32
53889;BME280;41337;51.400;-2.342;2022-07-26T21:04:12;101665.72;;;18.36;96.07
53889;BME280;41337;51.400;-2.342;2022-07-26T21:09:12;101665.00;;;18.26;97.79
53889;BME280;41337;51.400;-2.342;2022-07-26T21:14:13;101676.19;;;18.41;96.18
53889;BME280;41337;51.400;-2.342;2022-07-26T21:19:14;101671.34;;;18.14;98.48
53889;BME280;41337;51.400;-2.342;2022-07-26T21:24:15;101680.50;;;17.89;100.00
53889;BME280;41337;51.400;-2.342;2022-07-26T21:29:16;101674.81;;;17.51;100.00
53889;BME280;41337;51.400;-2.342;2022-07-26T21:34:17;101684.94;;;17.14;100.00
53889;BME280;41337;51.400;-2.342;2022-07-26T21:39:18;101684.34;;;16.85;100.00
53889;BME280;41337;51.400;-2.342;2022-07-26T21:44:19;101680.84;;;16.80;100.00
53889;BME280;41337;51.400;-2.342;2022-07-26T21:49:20;101687.38;;;16.34;100.00
53889;BME280;41337;51.400;-2.342;2022-07-26T21:54:21;101677.72;;;16.37;100.00
53889;BME280;41337;51.400;-2.342;2022-07-26T21:59:28;101685.81;;;16.10;100.00
53889;BME280;41337;51.400;-2.342;2022-07-26T22:04:29;101698.28;;;15.79;100.00
53889;BME280;41337;51.400;-2.342;2022-07-26T22:09:30;101688.66;;;15.64;100.00
53889;BME280;41337;51.400;-2.342;2022-07-26T22:14:31;101693.03;;;15.79;100.00
53889;BME280;41337;51.400;-2.342;2022-07-26T22:19:35;101693.03;;;15.70;100.00
53889;BME280;41337;51.400;-2.342;2022-07-26T22:24:37;101696.63;;;15.38;100.00
53889;BME280;41337;51.400;-2.342;2022-07-26T22:29:38;101701.03;;;15.36;100.00
53889;BME280;41337;51.400;-2.342;2022-07-26T22:34:39;101701.88;;;15.42;100.00
53889;BME280;41337;51.400;-2.342;2022-07-26T22:39:39;101696.66;;;15.35;100.00
53889;BME280;41337;51.400;-2.342;2022-07-26T22:44:40;101711.53;;;15.36;100.00
53889;BME280;41337;51.400;-2.342;2022-07-26T22:49:41;101719.41;;;15.33;100.00
53889;BME280;41337;51.400;-2.342;2022-07-26T22:54:42;101719.47;;;15.20;100.00
53889;BME280;41337;51.400;-2.342;2022-07-26T22:59:43;101723.84;;;15.15;100.00
53889;BME280;41337;51.400;-2.342;2022-07-26T23:04:44;101723.88;;;14.92;100.00
53889;BME280;41337;51.400;-2.342;2022-07-26T23:09:45;101716.91;;;14.93;100.00
53889;BME280;41337;51.400;-2.342;2022-07-26T23:14:48;101725.63;;;14.81;100.00
53889;BME280;41337;51.400;-2.342;2022-07-26T23:19:53;101713.41;;;14.74;100.00
53889;BME280;41337;51.400;-2.342;2022-07-26T23:24:53;101717.78;;;14.67;100.00
53889;BME280;41337;51.400;-2.342;2022-07-26T23:29:54;101709.06;;;14.68;100.00
53889;BME280;41337;51.400;-2.342;2022-07-26T23:34:55;101705.50;;;14.54;100.00
53889;BME280;41337;51.400;-2.342;2022-07-26T23:39:56;101697.63;;;14.41;100.00
53889;BME280;41337;51.400;-2.342;2022-07-26T23:44:57;101694.13;;;14.33;100.00
53889;BME280;41337;51.400;-2.342;2022-07-26T23:49:57;101694.13;;;14.25;100.00
53889;BME280;41337;51.400;-2.342;2022-07-26T23:54:59;101700.22;;;14.17;100.00
